Spring's Hourly Summary for Tuesday, March 14, 2017
Hour Temp
(f)
RH
(%)
Solar Rad.
(MJ/m2)
Rainfall
(in)
Wind
(mph)
3/14/2017 12:00 AM 50 90 0 0 0.19
3/14/2017 1:00 AM 49 90 0 0 0.38
3/14/2017 2:00 AM 50 85 0 0 0.51
3/14/2017 3:00 AM 49 67 0 0 3.16
3/14/2017 4:00 AM 48 67 0 0 2.62
3/14/2017 5:00 AM 46 69 0 0 2.38
3/14/2017 6:00 AM 45 64 0 0 2.33
3/14/2017 7:00 AM 44 63 0 0 1.26
3/14/2017 8:00 AM 42 70 0.02 0 0.54
3/14/2017 9:00 AM 44 57 0.3 0 1.8
3/14/2017 10:00 AM 47 52 1.47 0 3.59
3/14/2017 11:00 AM 49 47 2.24 0 2.91
3/14/2017 12:00 PM 53 43 2.83 0 3.28
3/14/2017 1:00 PM 56 39 3.22 0 2.88
3/14/2017 2:00 PM 59 36 3.35 0 2.5
3/14/2017 3:00 PM 62 31 3.24 0 2.1
3/14/2017 4:00 PM 65 27 2.87 0 2.28
3/14/2017 5:00 PM 67 25 2.26 0 2.47
3/14/2017 6:00 PM 68 25 1.48 0 2.36
3/14/2017 7:00 PM 68 24 0.62 0 2.61
3/14/2017 8:00 PM 65 28 0.05 0 1.17
3/14/2017 9:00 PM 58 45 0 0 0
3/14/2017 10:00 PM 56 58 0 0 0.07
3/14/2017 11:00 PM 57 57 0 0 0.89
Data Summary 54 52 23.95 0.00 1.85